sensor_id;sensor_type;location;lat;lon;timestamp;temperature;humidity
38488;DHT22;57384;51.986;4.458;2023-03-01T00:00:54;2.50;71.00
38488;DHT22;57384;51.986;4.458;2023-03-01T00:03:20;2.50;71.00
38488;DHT22;57384;51.986;4.458;2023-03-01T00:05:47;2.50;71.00
38488;DHT22;57384;51.986;4.458;2023-03-01T00:08:16;2.50;71.00
38488;DHT22;57384;51.986;4.458;2023-03-01T00:10:42;2.50;71.00
38488;DHT22;57384;51.986;4.458;2023-03-01T00:13:09;2.50;71.00
38488;DHT22;57384;51.986;4.458;2023-03-01T00:15:39;2.50;71.00
38488;DHT22;57384;51.986;4.458;2023-03-01T00:18:05;2.50;71.00
38488;DHT22;57384;51.986;4.458;2023-03-01T00:20:32;2.50;71.00
38488;DHT22;57384;51.986;4.458;2023-03-01T00:22:58;2.50;71.00
38488;DHT22;57384;51.986;4.458;2023-03-01T00:25:25;2.40;71.00
38488;DHT22;57384;51.986;4.458;2023-03-01T00:27:51;2.40;71.00
38488;DHT22;57384;51.986;4.458;2023-03-01T00:30:18;2.40;71.00
38488;DHT22;57384;51.986;4.458;2023-03-01T00:32:44;2.40;71.00
38488;DHT22;57384;51.986;4.458;2023-03-01T00:35:11;2.40;71.00
38488;DHT22;57384;51.986;4.458;2023-03-01T00:37:38;2.40;71.00
38488;DHT22;57384;51.986;4.458;2023-03-01T00:40:05;2.40;71.00
38488;DHT22;57384;51.986;4.458;2023-03-01T00:42:32;2.40;71.10
38488;DHT22;57384;51.986;4.458;2023-03-01T00:44:58;2.40;71.10
38488;DHT22;57384;51.986;4.458;2023-03-01T00:47:25;2.40;71.10
38488;DHT22;57384;51.986;4.458;2023-03-01T00:49:51;2.30;71.10
38488;DHT22;57384;51.986;4.458;2023-03-01T00:52:17;2.30;71.10
38488;DHT22;57384;51.986;4.458;2023-03-01T00:54:44;2.30;71.10
38488;DHT22;57384;51.986;4.458;2023-03-01T00:57:10;2.30;71.10
38488;DHT22;57384;51.986;4.458;2023-03-01T00:59:37;2.30;71.10
38488;DHT22;57384;51.986;4.458;2023-03-01T01:02:03;2.30;71.10
38488;DHT22;57384;51.986;4.458;2023-03-01T01:04:30;2.20;71.10
38488;DHT22;57384;51.986;4.458;2023-03-01T01:06:56;2.20;71.10
38488;DHT22;57384;51.986;4.458;2023-03-01T01:09:23;2.20;71.10
38488;DHT22;57384;51.986;4.458;2023-03-01T01:11:50;2.20;71.10
38488;DHT22;57384;51.986;4.458;2023-03-01T01:14:17;2.20;71.10
38488;DHT22;57384;51.986;4.458;2023-03-01T01:16:44;2.20;71.20
38488;DHT22;57384;51.986;4.458;2023-03-01T01:19:10;2.20;71.20
38488;DHT22;57384;51.986;4.458;2023-03-01T01:21:37;2.10;71.10
38488;DHT22;57384;51.986;4.458;2023-03-01T01:24:04;2.10;71.20
38488;DHT22;57384;51.986;4.458;2023-03-01T01:26:31;2.10;71.20
38488;DHT22;57384;51.986;4.458;2023-03-01T01:28:58;2.10;71.20
38488;DHT22;57384;51.986;4.458;2023-03-01T01:31:24;2.00;71.10
38488;DHT22;57384;51.986;4.458;2023-03-01T01:33:52;2.00;71.10
38488;DHT22;57384;51.986;4.458;2023-03-01T01:36:18;2.00;71.20
38488;DHT22;57384;51.986;4.458;2023-03-01T01:38:46;2.00;71.20
38488;DHT22;57384;51.986;4.458;2023-03-01T01:41:13;2.00;71.20
38488;DHT22;57384;51.986;4.458;2023-03-01T01:43:40;2.00;71.20
38488;DHT22;57384;51.986;4.458;2023-03-01T01:48:41;1.90;71.20
38488;DHT22;57384;51.986;4.458;2023-03-01T01:51:10;1.90;71.20
38488;DHT22;57384;51.986;4.458;2023-03-01T01:53:37;1.90;71.20
38488;DHT22;57384;51.986;4.458;2023-03-01T01:56:04;1.90;71.20
38488;DHT22;57384;51.986;4.458;2023-03-01T01:58:32;1.90;71.20
38488;DHT22;57384;51.986;4.458;2023-03-01T02:00:59;1.80;71.10
38488;DHT22;57384;51.986;4.458;2023-03-01T02:03:26;1.80;71.10
38488;DHT22;57384;51.986;4.458;2023-03-01T02:05:58;1.80;71.20
38488;DHT22;57384;51.986;4.458;2023-03-01T02:08:28;1.80;71.20
38488;DHT22;57384;51.986;4.458;2023-03-01T02:10:54;1.80;71.20
38488;DHT22;57384;51.986;4.458;2023-03-01T02:13:22;1.80;71.20
38488;DHT22;57384;51.986;4.458;2023-03-01T02:15:48;1.70;71.10
38488;DHT22;57384;51.986;4.458;2023-03-01T02:18:16;1.70;71.20
38488;DHT22;57384;51.986;4.458;2023-03-01T02:20:47;1.70;71.20
38488;DHT22;57384;51.986;4.458;2023-03-01T02:23:17;1.70;71.20
38488;DHT22;57384;51.986;4.458;2023-03-01T02:25:49;1.70;71.20
38488;DHT22;57384;51.986;4.458;2023-03-01T02:28:25;1.70;71.20
38488;DHT22;57384;51.986;4.458;2023-03-01T02:30:52;1.70;71.20
38488;DHT22;57384;51.986;4.458;2023-03-01T02:33:19;1.70;71.20
38488;DHT22;57384;51.986;4.458;2023-03-01T02:35:45;1.60;71.10
38488;DHT22;57384;51.986;4.458;2023-03-01T02:38:15;1.70;71.20
38488;DHT22;57384;51.986;4.458;2023-03-01T02:40:41;1.60;71.20
38488;DHT22;57384;51.986;4.458;2023-03-01T02:43:08;1.60;71.20
38488;DHT22;57384;51.986;4.458;2023-03-01T02:45:36;1.60;71.20
38488;DHT22;57384;51.986;4.458;2023-03-01T02:48:02;1.60;71.20
38488;DHT22;57384;51.986;4.458;2023-03-01T02:53:04;1.50;71.10
38488;DHT22;57384;51.986;4.458;2023-03-01T02:55:33;1.50;71.10
38488;DHT22;57384;51.986;4.458;2023-03-01T02:58:00;1.40;71.10
38488;DHT22;57384;51.986;4.458;2023-03-01T03:00:32;1.50;71.20
38488;DHT22;57384;51.986;4.458;2023-03-01T03:03:00;1.50;71.20
38488;DHT22;57384;51.986;4.458;2023-03-01T03:05:27;1.50;71.20
38488;DHT22;57384;51.986;4.458;2023-03-01T03:07:54;1.40;71.10
38488;DHT22;57384;51.986;4.458;2023-03-01T03:10:22;1.40;71.20
38488;DHT22;57384;51.986;4.458;2023-03-01T03:12:50;1.40;71.20
38488;DHT22;57384;51.986;4.458;2023-03-01T03:15:17;1.40;71.20
38488;DHT22;57384;51.986;4.458;2023-03-01T03:17:43;1.40;71.20
38488;DHT22;57384;51.986;4.458;2023-03-01T03:20:11;1.30;71.10
38488;DHT22;57384;51.986;4.458;2023-03-01T03:22:39;1.30;71.10
38488;DHT22;57384;51.986;4.458;2023-03-01T03:25:08;1.30;71.20
38488;DHT22;57384;51.986;4.458;2023-03-01T03:27:35;1.30;71.10
38488;DHT22;57384;51.986;4.458;2023-03-01T03:30:01;1.30;71.10
38488;DHT22;57384;51.986;4.458;2023-03-01T03:32:28;1.30;71.10
38488;DHT22;57384;51.986;4.458;2023-03-01T03:34:56;1.30;71.10
38488;DHT22;57384;51.986;4.458;2023-03-01T03:37:22;1.30;71.10
38488;DHT22;57384;51.986;4.458;2023-03-01T03:39:49;1.20;71.10
38488;DHT22;57384;51.986;4.458;2023-03-01T03:42:15;1.20;71.10
38488;DHT22;57384;51.986;4.458;2023-03-01T03:44:42;1.20;71.10
38488;DHT22;57384;51.986;4.458;2023-03-01T03:47:08;1.30;71.10
38488;DHT22;57384;51.986;4.458;2023-03-01T03:49:34;1.20;71.10
38488;DHT22;57384;51.986;4.458;2023-03-01T03:52:01;1.20;71.10
38488;DHT22;57384;51.986;4.458;2023-03-01T03:54:27;1.20;71.10
38488;DHT22;57384;51.986;4.458;2023-03-01T03:56:54;1.10;71.10
38488;DHT22;57384;51.986;4.458;2023-03-01T03:59:20;1.20;71.10
38488;DHT22;57384;51.986;4.458;2023-03-01T04:01:47;1.10;71.10
38488;DHT22;57384;51.986;4.458;2023-03-01T04:04:13;1.10;71.10
38488;DHT22;57384;51.986;4.458;2023-03-01T04:06:40;1.20;71.10
38488;DHT22;57384;51.986;4.458;2023-03-01T04:09:06;1.10;71.10
38488;DHT22;57384;51.986;4.458;2023-03-01T04:11:33;1.10;71.10
38488;DHT22;57384;51.986;4.458;2023-03-01T04:13:59;1.10;71.10
38488;DHT22;57384;51.986;4.458;2023-03-01T04:16:25;1.10;71.10
38488;DHT22;57384;51.986;4.458;2023-03-01T04:18:52;1.10;71.10
38488;DHT22;57384;51.986;4.458;2023-03-01T04:21:19;1.00;71.10
38488;DHT22;57384;51.986;4.458;2023-03-01T04:23:45;1.00;71.10
38488;DHT22;57384;51.986;4.458;2023-03-01T04:26:12;1.00;71.10
38488;DHT22;57384;51.986;4.458;2023-03-01T04:28:39;1.00;71.10
38488;DHT22;57384;51.986;4.458;2023-03-01T04:31:07;1.00;71.20
38488;DHT22;57384;51.986;4.458;2023-03-01T04:33:33;1.00;71.20
38488;DHT22;57384;51.986;4.458;2023-03-01T04:36:00;0.90;71.10
38488;DHT22;57384;51.986;4.458;2023-03-01T04:38:26;0.90;71.10
38488;DHT22;57384;51.986;4.458;2023-03-01T04:40:53;0.90;71.20
38488;DHT22;57384;51.986;4.458;2023-03-01T04:43:19;0.90;71.10
38488;DHT22;57384;51.986;4.458;2023-03-01T04:45:46;0.90;71.10
38488;DHT22;57384;51.986;4.458;2023-03-01T04:48:12;0.90;71.10
38488;DHT22;57384;51.986;4.458;2023-03-01T04:50:39;0.80;71.10
38488;DHT22;57384;51.986;4.458;2023-03-01T04:53:05;0.80;71.10
38488;DHT22;57384;51.986;4.458;2023-03-01T04:55:31;0.80;71.10
38488;DHT22;57384;51.986;4.458;2023-03-01T04:57:58;0.80;71.10
38488;DHT22;57384;51.986;4.458;2023-03-01T05:00:24;0.80;71.10
38488;DHT22;57384;51.986;4.458;2023-03-01T05:02:58;0.80;71.10
38488;DHT22;57384;51.986;4.458;2023-03-01T05:05:27;0.80;71.10
38488;DHT22;57384;51.986;4.458;2023-03-01T05:07:56;0.80;71.10
38488;DHT22;57384;51.986;4.458;2023-03-01T05:10:24;0.80;71.10
38488;DHT22;57384;51.986;4.458;2023-03-01T05:12:50;0.80;71.10
38488;DHT22;57384;51.986;4.458;2023-03-01T05:15:17;0.80;71.10
38488;DHT22;57384;51.986;4.458;2023-03-01T05:17:44;0.80;71.00
38488;DHT22;57384;51.986;4.458;2023-03-01T05:20:10;0.80;71.00
38488;DHT22;57384;51.986;4.458;2023-03-01T05:22:37;0.80;71.00
38488;DHT22;57384;51.986;4.458;2023-03-01T05:25:04;0.80;71.00
38488;DHT22;57384;51.986;4.458;2023-03-01T05:27:30;0.80;71.00
38488;DHT22;57384;51.986;4.458;2023-03-01T05:29:58;0.80;71.10
38488;DHT22;57384;51.986;4.458;2023-03-01T05:32:25;0.80;71.00
38488;DHT22;57384;51.986;4.458;2023-03-01T05:34:51;0.80;71.00
38488;DHT22;57384;51.986;4.458;2023-03-01T05:37:18;0.80;71.00
38488;DHT22;57384;51.986;4.458;2023-03-01T05:39:44;0.70;70.90
38488;DHT22;57384;51.986;4.458;2023-03-01T05:42:10;0.90;71.10
38488;DHT22;57384;51.986;4.458;2023-03-01T05:44:37;0.80;71.00
38488;DHT22;57384;51.986;4.458;2023-03-01T05:47:04;0.80;71.00
38488;DHT22;57384;51.986;4.458;2023-03-01T05:49:31;0.80;71.00
38488;DHT22;57384;51.986;4.458;2023-03-01T05:51:57;0.80;71.00
38488;DHT22;57384;51.986;4.458;2023-03-01T05:54:24;0.80;71.00
38488;DHT22;57384;51.986;4.458;2023-03-01T05:56:50;0.70;71.00
38488;DHT22;57384;51.986;4.458;2023-03-01T05:59:17;0.70;70.90
38488;DHT22;57384;51.986;4.458;2023-03-01T06:01:43;0.80;71.00
38488;DHT22;57384;51.986;4.458;2023-03-01T06:04:10;0.70;71.00
38488;DHT22;57384;51.986;4.458;2023-03-01T06:06:36;0.70;71.00
38488;DHT22;57384;51.986;4.458;2023-03-01T06:09:04;0.70;71.00
38488;DHT22;57384;51.986;4.458;2023-03-01T06:11:30;0.70;71.00
38488;DHT22;57384;51.986;4.458;2023-03-01T06:13:57;0.70;71.00
38488;DHT22;57384;51.986;4.458;2023-03-01T06:16:23;0.70;71.10
38488;DHT22;57384;51.986;4.458;2023-03-01T06:18:49;0.70;71.00
38488;DHT22;57384;51.986;4.458;2023-03-01T06:21:16;0.70;71.00
38488;DHT22;57384;51.986;4.458;2023-03-01T06:23:42;0.60;71.00
38488;DHT22;57384;51.986;4.458;2023-03-01T06:26:09;0.60;71.00
38488;DHT22;57384;51.986;4.458;2023-03-01T06:28:35;0.60;71.00
38488;DHT22;57384;51.986;4.458;2023-03-01T06:31:02;0.60;71.00
38488;DHT22;57384;51.986;4.458;2023-03-01T06:33:28;0.60;71.60
38488;DHT22;57384;51.986;4.458;2023-03-01T06:35:55;0.60;71.10
38488;DHT22;57384;51.986;4.458;2023-03-01T06:38:22;0.60;71.00
38488;DHT22;57384;51.986;4.458;2023-03-01T06:40:54;0.60;71.00
38488;DHT22;57384;51.986;4.458;2023-03-01T06:43:21;0.60;71.10
38488;DHT22;57384;51.986;4.458;2023-03-01T06:45:48;0.50;71.00
38488;DHT22;57384;51.986;4.458;2023-03-01T06:48:14;0.50;71.10
38488;DHT22;57384;51.986;4.458;2023-03-01T06:50:41;0.50;71.10
38488;DHT22;57384;51.986;4.458;2023-03-01T06:53:07;0.40;71.10
38488;DHT22;57384;51.986;4.458;2023-03-01T06:55:34;0.40;71.10
38488;DHT22;57384;51.986;4.458;2023-03-01T06:58:01;0.40;71.10
38488;DHT22;57384;51.986;4.458;2023-03-01T07:00:28;0.40;71.10
38488;DHT22;57384;51.986;4.458;2023-03-01T07:02:55;0.40;71.10
38488;DHT22;57384;51.986;4.458;2023-03-01T07:05:24;0.40;71.10
38488;DHT22;57384;51.986;4.458;2023-03-01T07:07:50;0.40;71.20
38488;DHT22;57384;51.986;4.458;2023-03-01T07:10:17;0.30;71.10
38488;DHT22;57384;51.986;4.458;2023-03-01T07:12:43;0.30;71.10
38488;DHT22;57384;51.986;4.458;2023-03-01T07:15:10;0.30;71.10
38488;DHT22;57384;51.986;4.458;2023-03-01T07:17:36;0.30;71.10
38488;DHT22;57384;51.986;4.458;2023-03-01T07:20:09;0.30;71.10
38488;DHT22;57384;51.986;4.458;2023-03-01T07:22:35;0.30;71.10
38488;DHT22;57384;51.986;4.458;2023-03-01T07:25:02;0.30;71.10
38488;DHT22;57384;51.986;4.458;2023-03-01T07:27:28;0.30;71.10
38488;DHT22;57384;51.986;4.458;2023-03-01T07:29:55;0.30;71.10
38488;DHT22;57384;51.986;4.458;2023-03-01T07:32:21;0.20;71.10
38488;DHT22;57384;51.986;4.458;2023-03-01T07:34:48;0.30;71.10
38488;DHT22;57384;51.986;4.458;2023-03-01T07:37:14;0.30;71.10
38488;DHT22;57384;51.986;4.458;2023-03-01T07:39:41;0.30;71.00
38488;DHT22;57384;51.986;4.458;2023-03-01T07:42:07;0.30;71.00
38488;DHT22;57384;51.986;4.458;2023-03-01T07:44:34;0.30;70.90
38488;DHT22;57384;51.986;4.458;2023-03-01T07:47:00;0.30;70.90
38488;DHT22;57384;51.986;4.458;2023-03-01T07:49:27;0.40;70.90
38488;DHT22;57384;51.986;4.458;2023-03-01T07:51:53;0.40;70.90
38488;DHT22;57384;51.986;4.458;2023-03-01T07:54:20;0.40;70.90
38488;DHT22;57384;51.986;4.458;2023-03-01T07:56:47;0.40;70.90
38488;DHT22;57384;51.986;4.458;2023-03-01T07:59:13;0.50;70.80
38488;DHT22;57384;51.986;4.458;2023-03-01T08:01:40;0.50;70.70
38488;DHT22;57384;51.986;4.458;2023-03-01T08:04:07;0.60;70.70
38488;DHT22;57384;51.986;4.458;2023-03-01T08:06:34;0.70;70.60
38488;DHT22;57384;51.986;4.458;2023-03-01T08:09:01;0.80;70.50
38488;DHT22;57384;51.986;4.458;2023-03-01T08:11:27;0.80;70.30
38488;DHT22;57384;51.986;4.458;2023-03-01T08:13:54;1.00;70.30
38488;DHT22;57384;51.986;4.458;2023-03-01T08:16:20;1.00;70.10
38488;DHT22;57384;51.986;4.458;2023-03-01T08:18:47;1.10;70.10
38488;DHT22;57384;51.986;4.458;2023-03-01T08:21:14;1.20;70.00
38488;DHT22;57384;51.986;4.458;2023-03-01T08:23:41;1.30;70.00
38488;DHT22;57384;51.986;4.458;2023-03-01T08:26:12;1.40;70.00
38488;DHT22;57384;51.986;4.458;2023-03-01T08:28:39;1.40;69.90
38488;DHT22;57384;51.986;4.458;2023-03-01T08:31:17;1.50;69.90
38488;DHT22;57384;51.986;4.458;2023-03-01T08:33:44;1.60;69.80
38488;DHT22;57384;51.986;4.458;2023-03-01T08:36:10;1.70;69.70
38488;DHT22;57384;51.986;4.458;2023-03-01T08:38:37;1.80;69.70
38488;DHT22;57384;51.986;4.458;2023-03-01T08:41:03;1.90;69.60
38488;DHT22;57384;51.986;4.458;2023-03-01T08:43:30;2.00;69.50
38488;DHT22;57384;51.986;4.458;2023-03-01T08:45:57;2.20;69.50
38488;DHT22;57384;51.986;4.458;2023-03-01T08:48:23;2.30;69.40
38488;DHT22;57384;51.986;4.458;2023-03-01T08:50:50;2.40;69.20
38488;DHT22;57384;51.986;4.458;2023-03-01T08:53:17;2.60;69.20
38488;DHT22;57384;51.986;4.458;2023-03-01T08:55:48;2.70;69.10
38488;DHT22;57384;51.986;4.458;2023-03-01T08:58:15;2.90;69.00
38488;DHT22;57384;51.986;4.458;2023-03-01T09:00:44;3.10;68.90
38488;DHT22;57384;51.986;4.458;2023-03-01T09:03:13;3.20;68.90
38488;DHT22;57384;51.986;4.458;2023-03-01T09:05:42;3.40;68.80
38488;DHT22;57384;51.986;4.458;2023-03-01T09:08:12;3.50;68.70
38488;DHT22;57384;51.986;4.458;2023-03-01T09:10:38;3.80;69.20
38488;DHT22;57384;51.986;4.458;2023-03-01T09:13:05;3.90;68.50
38488;DHT22;57384;51.986;4.458;2023-03-01T09:15:31;4.10;68.60
38488;DHT22;57384;51.986;4.458;2023-03-01T09:17:58;4.30;68.60
38488;DHT22;57384;51.986;4.458;2023-03-01T09:20:25;4.40;68.50
38488;DHT22;57384;51.986;4.458;2023-03-01T09:22:51;4.60;68.50
38488;DHT22;57384;51.986;4.458;2023-03-01T09:25:20;4.70;68.50
38488;DHT22;57384;51.986;4.458;2023-03-01T09:27:50;4.90;68.50
38488;DHT22;57384;51.986;4.458;2023-03-01T09:30:16;5.10;68.60
38488;DHT22;57384;51.986;4.458;2023-03-01T09:32:43;5.30;68.60
38488;DHT22;57384;51.986;4.458;2023-03-01T09:35:11;5.40;68.60
38488;DHT22;57384;51.986;4.458;2023-03-01T09:37:37;5.60;68.70
38488;DHT22;57384;51.986;4.458;2023-03-01T09:40:09;5.70;68.60
38488;DHT22;57384;51.986;4.458;2023-03-01T09:42:37;5.90;68.70
38488;DHT22;57384;51.986;4.458;2023-03-01T09:45:15;6.10;68.80
38488;DHT22;57384;51.986;4.458;2023-03-01T09:47:45;6.20;69.40
38488;DHT22;57384;51.986;4.458;2023-03-01T09:50:13;6.40;68.80
38488;DHT22;57384;51.986;4.458;2023-03-01T09:52:46;6.50;68.80
38488;DHT22;57384;51.986;4.458;2023-03-01T09:55:25;6.70;68.90
38488;DHT22;57384;51.986;4.458;2023-03-01T09:57:56;6.90;69.00
38488;DHT22;57384;51.986;4.458;2023-03-01T10:00:41;7.00;69.00
38488;DHT22;57384;51.986;4.458;2023-03-01T10:03:11;7.20;69.10
38488;DHT22;57384;51.986;4.458;2023-03-01T10:10:35;7.60;69.30
38488;DHT22;57384;51.986;4.458;2023-03-01T10:13:03;7.80;69.40
38488;DHT22;57384;51.986;4.458;2023-03-01T10:15:39;7.90;69.40
38488;DHT22;57384;51.986;4.458;2023-03-01T10:18:10;8.00;69.40
38488;DHT22;57384;51.986;4.458;2023-03-01T10:20:56;8.20;69.40
38488;DHT22;57384;51.986;4.458;2023-03-01T10:23:25;8.30;69.50
38488;DHT22;57384;51.986;4.458;2023-03-01T10:28:40;8.60;69.60
38488;DHT22;57384;51.986;4.458;2023-03-01T10:31:11;8.70;69.60
38488;DHT22;57384;51.986;4.458;2023-03-01T10:33:38;8.80;69.70
38488;DHT22;57384;51.986;4.458;2023-03-01T10:36:05;8.90;69.70
38488;DHT22;57384;51.986;4.458;2023-03-01T10:38:46;9.00;69.70
38488;DHT22;57384;51.986;4.458;2023-03-01T10:41:13;9.10;69.70
38488;DHT22;57384;51.986;4.458;2023-03-01T10:43:47;9.20;69.70
38488;DHT22;57384;51.986;4.458;2023-03-01T10:51:43;9.50;69.80
38488;DHT22;57384;51.986;4.458;2023-03-01T10:54:20;9.60;69.70
38488;DHT22;57384;51.986;4.458;2023-03-01T10:56:49;9.70;69.80
38488;DHT22;57384;51.986;4.458;2023-03-01T10:59:24;9.80;69.80
38488;DHT22;57384;51.986;4.458;2023-03-01T11:02:03;9.90;69.80
38488;DHT22;57384;51.986;4.458;2023-03-01T11:04:30;10.10;69.80
38488;DHT22;57384;51.986;4.458;2023-03-01T11:07:00;10.20;69.80
38488;DHT22;57384;51.986;4.458;2023-03-01T11:09:29;10.30;69.70
38488;DHT22;57384;51.986;4.458;2023-03-01T11:11:57;10.40;69.60
38488;DHT22;57384;51.986;4.458;2023-03-01T11:14:24;10.50;69.60
38488;DHT22;57384;51.986;4.458;2023-03-01T11:16:59;10.60;69.60
38488;DHT22;57384;51.986;4.458;2023-03-01T11:19:26;10.80;69.60
38488;DHT22;57384;51.986;4.458;2023-03-01T11:21:55;10.90;69.60
38488;DHT22;57384;51.986;4.458;2023-03-01T11:24:26;11.00;69.60
38488;DHT22;57384;51.986;4.458;2023-03-01T11:26:54;11.10;69.50
38488;DHT22;57384;51.986;4.458;2023-03-01T11:31:54;11.30;69.50
38488;DHT22;57384;51.986;4.458;2023-03-01T11:34:36;11.40;69.40
38488;DHT22;57384;51.986;4.458;2023-03-01T11:37:08;11.60;69.50
38488;DHT22;57384;51.986;4.458;2023-03-01T11:39:42;11.70;69.40
38488;DHT22;57384;51.986;4.458;2023-03-01T11:42:15;11.80;69.40
38488;DHT22;57384;51.986;4.458;2023-03-01T11:44:43;12.00;69.40
38488;DHT22;57384;51.986;4.458;2023-03-01T12:01:28;12.70;69.10
38488;DHT22;57384;51.986;4.458;2023-03-01T12:25:55;14.20;68.80
38488;DHT22;57384;51.986;4.458;2023-03-01T12:33:49;14.70;68.80
38488;DHT22;57384;51.986;4.458;2023-03-01T12:41:38;15.20;68.70
38488;DHT22;57384;51.986;4.458;2023-03-01T12:47:04;15.50;68.70
38488;DHT22;57384;51.986;4.458;2023-03-01T12:49:33;15.70;68.60
38488;DHT22;57384;51.986;4.458;2023-03-01T12:54:54;15.90;68.60
38488;DHT22;57384;51.986;4.458;2023-03-01T12:57:26;16.10;68.60
38488;DHT22;57384;51.986;4.458;2023-03-01T13:02:44;16.40;68.50
38488;DHT22;57384;51.986;4.458;2023-03-01T13:07:59;16.70;68.40
38488;DHT22;57384;51.986;4.458;2023-03-01T13:31:10;17.00;67.50
38488;DHT22;57384;51.986;4.458;2023-03-01T13:44:21;16.40;67.20
38488;DHT22;57384;51.986;4.458;2023-03-01T13:46:51;16.20;67.40
38488;DHT22;57384;51.986;4.458;2023-03-01T13:49:19;16.00;67.40
38488;DHT22;57384;51.986;4.458;2023-03-01T13:51:47;15.80;67.20
38488;DHT22;57384;51.986;4.458;2023-03-01T13:54:15;15.60;67.40
38488;DHT22;57384;51.986;4.458;2023-03-01T13:56:42;15.40;67.80
38488;DHT22;57384;51.986;4.458;2023-03-01T13:59:17;15.20;68.10
38488;DHT22;57384;51.986;4.458;2023-03-01T14:01:44;15.10;67.90
38488;DHT22;57384;51.986;4.458;2023-03-01T14:04:25;14.90;67.60
38488;DHT22;57384;51.986;4.458;2023-03-01T14:06:52;14.70;67.30
38488;DHT22;57384;51.986;4.458;2023-03-01T14:09:34;14.60;67.10
38488;DHT22;57384;51.986;4.458;2023-03-01T14:14:55;14.20;67.20
38488;DHT22;57384;51.986;4.458;2023-03-01T14:17:30;14.00;67.50
38488;DHT22;57384;51.986;4.458;2023-03-01T14:20:11;13.80;67.80
38488;DHT22;57384;51.986;4.458;2023-03-01T14:22:39;13.60;67.50
38488;DHT22;57384;51.986;4.458;2023-03-01T14:27:42;13.30;67.40
38488;DHT22;57384;51.986;4.458;2023-03-01T14:30:10;13.10;67.20
38488;DHT22;57384;51.986;4.458;2023-03-01T14:32:39;13.00;67.40
38488;DHT22;57384;51.986;4.458;2023-03-01T14:35:25;12.90;67.40
38488;DHT22;57384;51.986;4.458;2023-03-01T14:37:51;12.70;67.50
38488;DHT22;57384;51.986;4.458;2023-03-01T14:40:28;12.60;68.00
38488;DHT22;57384;51.986;4.458;2023-03-01T14:42:56;12.40;67.50
38488;DHT22;57384;51.986;4.458;2023-03-01T14:45:23;12.30;67.30
38488;DHT22;57384;51.986;4.458;2023-03-01T14:47:50;12.20;67.20
38488;DHT22;57384;51.986;4.458;2023-03-01T14:50:33;12.10;67.30
38488;DHT22;57384;51.986;4.458;2023-03-01T14:53:01;12.00;67.10
38488;DHT22;57384;51.986;4.458;2023-03-01T14:57:58;11.70;66.90
38488;DHT22;57384;51.986;4.458;2023-03-01T15:00:28;11.60;67.10
38488;DHT22;57384;51.986;4.458;2023-03-01T15:02:55;11.50;67.30
38488;DHT22;57384;51.986;4.458;2023-03-01T15:05:32;11.40;67.10
38488;DHT22;57384;51.986;4.458;2023-03-01T15:07:59;11.20;67.10
38488;DHT22;57384;51.986;4.458;2023-03-01T15:10:28;11.10;67.20
38488;DHT22;57384;51.986;4.458;2023-03-01T15:12:56;11.00;67.30
38488;DHT22;57384;51.986;4.458;2023-03-01T15:15:30;10.90;67.10
38488;DHT22;57384;51.986;4.458;2023-03-01T15:17:58;10.80;67.20
38488;DHT22;57384;51.986;4.458;2023-03-01T15:20:26;10.70;67.00
38488;DHT22;57384;51.986;4.458;2023-03-01T15:22:53;10.60;66.80
38488;DHT22;57384;51.986;4.458;2023-03-01T15:25:27;10.60;66.80
38488;DHT22;57384;51.986;4.458;2023-03-01T15:27:54;10.50;66.80
38488;DHT22;57384;51.986;4.458;2023-03-01T15:30:26;10.40;66.80
38488;DHT22;57384;51.986;4.458;2023-03-01T15:35:42;10.30;66.80
38488;DHT22;57384;51.986;4.458;2023-03-01T15:40:51;10.10;66.50
38488;DHT22;57384;51.986;4.458;2023-03-01T15:43:41;10.00;66.50
38488;DHT22;57384;51.986;4.458;2023-03-01T15:46:27;10.00;66.50
38488;DHT22;57384;51.986;4.458;2023-03-01T15:48:56;9.90;66.50
38488;DHT22;57384;51.986;4.458;2023-03-01T15:51:27;9.80;66.60
38488;DHT22;57384;51.986;4.458;2023-03-01T15:53:54;9.70;66.60
38488;DHT22;57384;51.986;4.458;2023-03-01T15:56:21;9.70;66.70
38488;DHT22;57384;51.986;4.458;2023-03-01T15:58:48;9.60;66.70
38488;DHT22;57384;51.986;4.458;2023-03-01T16:01:14;9.60;66.60
38488;DHT22;57384;51.986;4.458;2023-03-01T16:03:41;9.50;66.50
38488;DHT22;57384;51.986;4.458;2023-03-01T16:06:11;9.40;66.50
38488;DHT22;57384;51.986;4.458;2023-03-01T16:08:38;9.40;66.50
38488;DHT22;57384;51.986;4.458;2023-03-01T16:11:04;9.30;66.50
38488;DHT22;57384;51.986;4.458;2023-03-01T16:13:35;9.20;66.50
38488;DHT22;57384;51.986;4.458;2023-03-01T16:16:01;9.10;66.50
38488;DHT22;57384;51.986;4.458;2023-03-01T16:18:28;9.10;66.50
38488;DHT22;57384;51.986;4.458;2023-03-01T16:20:54;9.00;66.40
38488;DHT22;57384;51.986;4.458;2023-03-01T16:23:21;9.00;66.50
38488;DHT22;57384;51.986;4.458;2023-03-01T16:25:47;8.90;66.50
38488;DHT22;57384;51.986;4.458;2023-03-01T16:28:14;8.90;66.60
38488;DHT22;57384;51.986;4.458;2023-03-01T16:30:45;8.80;66.50
38488;DHT22;57384;51.986;4.458;2023-03-01T16:33:12;8.80;66.60
38488;DHT22;57384;51.986;4.458;2023-03-01T16:35:39;8.80;66.60
38488;DHT22;57384;51.986;4.458;2023-03-01T16:38:05;8.70;66.50
38488;DHT22;57384;51.986;4.458;2023-03-01T16:40:32;8.70;66.60
38488;DHT22;57384;51.986;4.458;2023-03-01T16:42:58;8.60;66.60
38488;DHT22;57384;51.986;4.458;2023-03-01T16:45:25;8.50;66.50
38488;DHT22;57384;51.986;4.458;2023-03-01T16:47:52;8.50;66.60
38488;DHT22;57384;51.986;4.458;2023-03-01T16:50:19;8.40;66.60
38488;DHT22;57384;51.986;4.458;2023-03-01T16:52:47;8.40;66.60
38488;DHT22;57384;51.986;4.458;2023-03-01T16:55:13;8.30;66.60
38488;DHT22;57384;51.986;4.458;2023-03-01T16:57:40;8.30;66.60
38488;DHT22;57384;51.986;4.458;2023-03-01T17:00:07;8.20;66.60
38488;DHT22;57384;51.986;4.458;2023-03-01T17:02:34;8.20;66.60
38488;DHT22;57384;51.986;4.458;2023-03-01T17:05:01;8.20;66.60
38488;DHT22;57384;51.986;4.458;2023-03-01T17:07:28;8.20;66.60
38488;DHT22;57384;51.986;4.458;2023-03-01T17:09:54;8.00;66.50
38488;DHT22;57384;51.986;4.458;2023-03-01T17:12:21;8.00;66.50
38488;DHT22;57384;51.986;4.458;2023-03-01T17:14:59;7.90;66.40
38488;DHT22;57384;51.986;4.458;2023-03-01T17:17:44;7.90;66.60
38488;DHT22;57384;51.986;4.458;2023-03-01T17:20:19;7.80;66.50
38488;DHT22;57384;51.986;4.458;2023-03-01T17:23:04;7.80;66.60
38488;DHT22;57384;51.986;4.458;2023-03-01T17:25:30;7.70;66.70
38488;DHT22;57384;51.986;4.458;2023-03-01T17:27:57;7.70;66.60
38488;DHT22;57384;51.986;4.458;2023-03-01T17:30:23;7.70;66.70
38488;DHT22;57384;51.986;4.458;2023-03-01T17:32:50;7.70;66.70
38488;DHT22;57384;51.986;4.458;2023-03-01T17:35:16;7.60;66.70
38488;DHT22;57384;51.986;4.458;2023-03-01T17:37:43;7.60;66.80
38488;DHT22;57384;51.986;4.458;2023-03-01T17:40:09;7.50;66.80
38488;DHT22;57384;51.986;4.458;2023-03-01T17:42:36;7.40;66.80
38488;DHT22;57384;51.986;4.458;2023-03-01T17:45:03;7.40;66.80
38488;DHT22;57384;51.986;4.458;2023-03-01T17:47:29;7.40;66.90
38488;DHT22;57384;51.986;4.458;2023-03-01T17:49:56;7.30;66.80
38488;DHT22;57384;51.986;4.458;2023-03-01T17:52:22;7.30;66.90